<?xml version="1.0" encoding="UTF-8" standalone="no" ?>
<gpx xmlns="http://www.topografix.com/GPX/1/1" xmlns:xsi="http://www.w3.org/2001/XMLSchema-instance" xsi:schemaLocation="http://www.topografix.com/GPX/1/1 http://www.topografix.com/GPX/1/1/gpx.xsd" version="1.1" creator="VisuGPX - https://www.visugpx.com">
  <metadata>
    <name>Test prom</name>
  </metadata>
  <trk>
    <name><![CDATA[Nice Course à pied]]></name>
    <trkseg>
      <trkpt lat="43.70042" lon="7.25781">
        <ele>20.799999237061</ele>
        <time>2019-04-15T09:32:58.000Z</time>
      </trkpt>
      <trkpt lat="43.7003" lon="7.25785">
        <ele>20.799999237061</ele>
        <time>2019-04-15T09:33:03.000Z</time>
      </trkpt>
      <trkpt lat="43.70012" lon="7.2579">
        <ele>21</ele>
        <time>2019-04-15T09:33:11.000Z</time>
      </trkpt>
      <trkpt lat="43.70002" lon="7.2579">
        <ele>20.799999237061</ele>
        <time>2019-04-15T09:33:16.000Z</time>
      </trkpt>
      <trkpt lat="43.69988" lon="7.25793">
        <ele>20.60000038147</ele>
        <time>2019-04-15T09:33:21.000Z</time>
      </trkpt>
      <trkpt lat="43.69969" lon="7.25787">
        <ele>20.200000762939</ele>
        <time>2019-04-15T09:33:28.000Z</time>
      </trkpt>
      <trkpt lat="43.69949" lon="7.25784">
        <ele>19.799999237061</ele>
        <time>2019-04-15T09:33:35.000Z</time>
      </trkpt>
      <trkpt lat="43.6993" lon="7.25786">
        <ele>19.200000762939</ele>
        <time>2019-04-15T09:33:43.000Z</time>
      </trkpt>
      <trkpt lat="43.69909" lon="7.25788">
        <ele>17.799999237061</ele>
        <time>2019-04-15T09:33:50.000Z</time>
      </trkpt>
      <trkpt lat="43.69889" lon="7.25783">
        <ele>16.799999237061</ele>
        <time>2019-04-15T09:33:57.000Z</time>
      </trkpt>
      <trkpt lat="43.69872" lon="7.25773">
        <ele>16.200000762939</ele>
        <time>2019-04-15T09:34:02.000Z</time>
      </trkpt>
      <trkpt lat="43.69852" lon="7.25767">
        <ele>15.800000190735</ele>
        <time>2019-04-15T09:34:08.000Z</time>
      </trkpt>
      <trkpt lat="43.6984" lon="7.25764">
        <ele>15.800000190735</ele>
        <time>2019-04-15T09:34:12.000Z</time>
      </trkpt>
      <trkpt lat="43.69825" lon="7.2576">
        <ele>15.800000190735</ele>
        <time>2019-04-15T09:34:18.000Z</time>
      </trkpt>
      <trkpt lat="43.69808" lon="7.25765">
        <ele>16.200000762939</ele>
        <time>2019-04-15T09:34:25.000Z</time>
      </trkpt>
      <trkpt lat="43.69806" lon="7.25779">
        <ele>16.799999237061</ele>
        <time>2019-04-15T09:34:27.000Z</time>
      </trkpt>
      <trkpt lat="43.69805" lon="7.25782">
        <ele>16.799999237061</ele>
        <time>2019-04-15T09:34:28.000Z</time>
      </trkpt>
      <trkpt lat="43.69804" lon="7.25795">
        <ele>17</ele>
        <time>2019-04-15T09:34:31.000Z</time>
      </trkpt>
      <trkpt lat="43.69794" lon="7.25788">
        <ele>16.799999237061</ele>
        <time>2019-04-15T09:34:37.000Z</time>
      </trkpt>
      <trkpt lat="43.69785" lon="7.25781">
        <ele>16.60000038147</ele>
        <time>2019-04-15T09:34:43.000Z</time>
      </trkpt>
      <trkpt lat="43.69765" lon="7.25779">
        <ele>16.200000762939</ele>
        <time>2019-04-15T09:34:51.000Z</time>
      </trkpt>
      <trkpt lat="43.69746" lon="7.25778">
        <ele>15.800000190735</ele>
        <time>2019-04-15T09:34:58.000Z</time>
      </trkpt>
      <trkpt lat="43.69744" lon="7.2578">
        <ele>15.800000190735</ele>
        <time>2019-04-15T09:34:59.000Z</time>
      </trkpt>
      <trkpt lat="43.69735" lon="7.2578">
        <ele>15.60000038147</ele>
        <time>2019-04-15T09:35:02.000Z</time>
      </trkpt>
      <trkpt lat="43.69723" lon="7.25774">
        <ele>15.199999809265</ele>
        <time>2019-04-15T09:35:07.000Z</time>
      </trkpt>
      <trkpt lat="43.69704" lon="7.25774">
        <ele>14.800000190735</ele>
        <time>2019-04-15T09:35:15.000Z</time>
      </trkpt>
      <trkpt lat="43.69686" lon="7.25769">
        <ele>14.199999809265</ele>
        <time>2019-04-15T09:35:23.000Z</time>
      </trkpt>
      <trkpt lat="43.69682" lon="7.25768">
        <ele>14.39999961853</ele>
        <time>2019-04-15T09:35:25.000Z</time>
      </trkpt>
      <trkpt lat="43.69663" lon="7.25762">
        <ele>14.39999961853</ele>
        <time>2019-04-15T09:35:33.000Z</time>
      </trkpt>
      <trkpt lat="43.69652" lon="7.25761">
        <ele>14.60000038147</ele>
        <time>2019-04-15T09:35:36.000Z</time>
      </trkpt>
      <trkpt lat="43.69634" lon="7.25755">
        <ele>14.800000190735</ele>
        <time>2019-04-15T09:35:42.000Z</time>
      </trkpt>
      <trkpt lat="43.69617" lon="7.25747">
        <ele>14.800000190735</ele>
        <time>2019-04-15T09:35:49.000Z</time>
      </trkpt>
      <trkpt lat="43.69598" lon="7.25744">
        <ele>15.199999809265</ele>
        <time>2019-04-15T09:35:54.000Z</time>
      </trkpt>
      <trkpt lat="43.6958" lon="7.25743">
        <ele>15.800000190735</ele>
        <time>2019-04-15T09:35:59.000Z</time>
      </trkpt>
      <trkpt lat="43.6956" lon="7.25738">
        <ele>16.39999961853</ele>
        <time>2019-04-15T09:36:05.000Z</time>
      </trkpt>
      <trkpt lat="43.69556" lon="7.25738">
        <ele>16.60000038147</ele>
        <time>2019-04-15T09:36:07.000Z</time>
      </trkpt>
      <trkpt lat="43.69543" lon="7.25739">
        <ele>17</ele>
        <time>2019-04-15T09:36:12.000Z</time>
      </trkpt>
      <trkpt lat="43.69527" lon="7.25747">
        <ele>17.799999237061</ele>
        <time>2019-04-15T09:36:20.000Z</time>
      </trkpt>
      <trkpt lat="43.69516" lon="7.2575">
        <ele>17.60000038147</ele>
        <time>2019-04-15T09:36:24.000Z</time>
      </trkpt>
      <trkpt lat="43.69509" lon="7.25754">
        <ele>17.39999961853</ele>
        <time>2019-04-15T09:36:28.000Z</time>
      </trkpt>
      <trkpt lat="43.69498" lon="7.25758">
        <ele>16.60000038147</ele>
        <time>2019-04-15T09:36:33.000Z</time>
      </trkpt>
      <trkpt lat="43.69479" lon="7.25764">
        <ele>15.60000038147</ele>
        <time>2019-04-15T09:36:40.000Z</time>
      </trkpt>
      <trkpt lat="43.6946" lon="7.2577">
        <ele>14.60000038147</ele>
        <time>2019-04-15T09:36:47.000Z</time>
      </trkpt>
      <trkpt lat="43.69448" lon="7.25769">
        <ele>13.60000038147</ele>
        <time>2019-04-15T09:36:50.000Z</time>
      </trkpt>
      <trkpt lat="43.69429" lon="7.25773">
        <ele>11</ele>
        <time>2019-04-15T09:36:54.000Z</time>
      </trkpt>
      <trkpt lat="43.69414" lon="7.25788">
        <ele>7.4000000953674</ele>
        <time>2019-04-15T09:37:05.000Z</time>
      </trkpt>
      <trkpt lat="43.69411" lon="7.25789">
        <ele>6.8000001907349</ele>
        <time>2019-04-15T09:37:07.000Z</time>
      </trkpt>
      <trkpt lat="43.694" lon="7.258">
        <ele>5.1999998092651</ele>
        <time>2019-04-15T09:37:22.000Z</time>
      </trkpt>
      <trkpt lat="43.69405" lon="7.25815">
        <ele>6.8000001907349</ele>
        <time>2019-04-15T09:37:27.000Z</time>
      </trkpt>
      <trkpt lat="43.69409" lon="7.25834">
        <ele>7.8000001907349</ele>
        <time>2019-04-15T09:37:32.000Z</time>
      </trkpt>
      <trkpt lat="43.69415" lon="7.25862">
        <ele>6.1999998092651</ele>
        <time>2019-04-15T09:37:39.000Z</time>
      </trkpt>
      <trkpt lat="43.69416" lon="7.25888">
        <ele>4.8000001907349</ele>
        <time>2019-04-15T09:37:45.000Z</time>
      </trkpt>
      <trkpt lat="43.69419" lon="7.25915">
        <ele>3.7999999523163</ele>
        <time>2019-04-15T09:37:52.000Z</time>
      </trkpt>
      <trkpt lat="43.69426" lon="7.25939">
        <ele>3.5999999046326</ele>
        <time>2019-04-15T09:37:59.000Z</time>
      </trkpt>
      <trkpt lat="43.6943" lon="7.25965">
        <ele>3.2000000476837</ele>
        <time>2019-04-15T09:38:05.000Z</time>
      </trkpt>
      <trkpt lat="43.69436" lon="7.25992">
        <ele>3</ele>
        <time>2019-04-15T09:38:11.000Z</time>
      </trkpt>
      <trkpt lat="43.6944" lon="7.26019">
        <ele>3.2000000476837</ele>
        <time>2019-04-15T09:38:17.000Z</time>
      </trkpt>
      <trkpt lat="43.69444" lon="7.26044">
        <ele>3.4000000953674</ele>
        <time>2019-04-15T09:38:23.000Z</time>
      </trkpt>
      <trkpt lat="43.69449" lon="7.26072">
        <ele>3.7999999523163</ele>
        <time>2019-04-15T09:38:29.000Z</time>
      </trkpt>
      <trkpt lat="43.69453" lon="7.26097">
        <ele>4</ele>
        <time>2019-04-15T09:38:35.000Z</time>
      </trkpt>
      <trkpt lat="43.69456" lon="7.26121">
        <ele>3.7999999523163</ele>
        <time>2019-04-15T09:38:41.000Z</time>
      </trkpt>
      <trkpt lat="43.69459" lon="7.26146">
        <ele>3.5999999046326</ele>
        <time>2019-04-15T09:38:47.000Z</time>
      </trkpt>
      <trkpt lat="43.69462" lon="7.26174">
        <ele>4</ele>
        <time>2019-04-15T09:38:54.000Z</time>
      </trkpt>
      <trkpt lat="43.69463" lon="7.26201">
        <ele>4.4000000953674</ele>
        <time>2019-04-15T09:39:01.000Z</time>
      </trkpt>
      <trkpt lat="43.69464" lon="7.26227">
        <ele>4.5999999046326</ele>
        <time>2019-04-15T09:39:08.000Z</time>
      </trkpt>
      <trkpt lat="43.69469" lon="7.26254">
        <ele>5.1999998092651</ele>
        <time>2019-04-15T09:39:16.000Z</time>
      </trkpt>
      <trkpt lat="43.6947" lon="7.26281">
        <ele>5.4000000953674</ele>
        <time>2019-04-15T09:39:22.000Z</time>
      </trkpt>
      <trkpt lat="43.69473" lon="7.26309">
        <ele>8</ele>
        <time>2019-04-15T09:39:28.000Z</time>
      </trkpt>
      <trkpt lat="43.69476" lon="7.26336">
        <ele>9.6000003814697</ele>
        <time>2019-04-15T09:39:34.000Z</time>
      </trkpt>
      <trkpt lat="43.69477" lon="7.26363">
        <ele>8.8000001907349</ele>
        <time>2019-04-15T09:39:40.000Z</time>
      </trkpt>
      <trkpt lat="43.69476" lon="7.26388">
        <ele>6.8000001907349</ele>
        <time>2019-04-15T09:39:46.000Z</time>
      </trkpt>
      <trkpt lat="43.69476" lon="7.26415">
        <ele>4.8000001907349</ele>
        <time>2019-04-15T09:39:53.000Z</time>
      </trkpt>
      <trkpt lat="43.69479" lon="7.26442">
        <ele>5.1999998092651</ele>
        <time>2019-04-15T09:39:59.000Z</time>
      </trkpt>
      <trkpt lat="43.6948" lon="7.2647">
        <ele>4.8000001907349</ele>
        <time>2019-04-15T09:40:05.000Z</time>
      </trkpt>
      <trkpt lat="43.6948" lon="7.26497">
        <ele>4.1999998092651</ele>
        <time>2019-04-15T09:40:11.000Z</time>
      </trkpt>
      <trkpt lat="43.69481" lon="7.26524">
        <ele>5.4000000953674</ele>
        <time>2019-04-15T09:40:17.000Z</time>
      </trkpt>
      <trkpt lat="43.69481" lon="7.26551">
        <ele>6.5999999046326</ele>
        <time>2019-04-15T09:40:23.000Z</time>
      </trkpt>
      <trkpt lat="43.69482" lon="7.26577">
        <ele>8.8000001907349</ele>
        <time>2019-04-15T09:40:29.000Z</time>
      </trkpt>
      <trkpt lat="43.69484" lon="7.26602">
        <ele>7.8000001907349</ele>
        <time>2019-04-15T09:40:35.000Z</time>
      </trkpt>
      <trkpt lat="43.69486" lon="7.26628">
        <ele>6.4000000953674</ele>
        <time>2019-04-15T09:40:41.000Z</time>
      </trkpt>
      <trkpt lat="43.69489" lon="7.26654">
        <ele>7.5999999046326</ele>
        <time>2019-04-15T09:40:47.000Z</time>
      </trkpt>
      <trkpt lat="43.69488" lon="7.26681">
        <ele>7.4000000953674</ele>
        <time>2019-04-15T09:40:53.000Z</time>
      </trkpt>
      <trkpt lat="43.69489" lon="7.26706">
        <ele>6.4000000953674</ele>
        <time>2019-04-15T09:40:59.000Z</time>
      </trkpt>
      <trkpt lat="43.6949" lon="7.26733">
        <ele>5.4000000953674</ele>
        <time>2019-04-15T09:41:05.000Z</time>
      </trkpt>
      <trkpt lat="43.69491" lon="7.26758">
        <ele>4.8000001907349</ele>
        <time>2019-04-15T09:41:11.000Z</time>
      </trkpt>
      <trkpt lat="43.69491" lon="7.26785">
        <ele>4.5999999046326</ele>
        <time>2019-04-15T09:41:17.000Z</time>
      </trkpt>
      <trkpt lat="43.69492" lon="7.26811">
        <ele>3.5999999046326</ele>
        <time>2019-04-15T09:41:23.000Z</time>
      </trkpt>
      <trkpt lat="43.69493" lon="7.26837">
        <ele>2.2000000476837</ele>
        <time>2019-04-15T09:41:29.000Z</time>
      </trkpt>
      <trkpt lat="43.69493" lon="7.26863">
        <ele>2.7999999523163</ele>
        <time>2019-04-15T09:41:35.000Z</time>
      </trkpt>
      <trkpt lat="43.69493" lon="7.26889">
        <ele>3.4000000953674</ele>
        <time>2019-04-15T09:41:41.000Z</time>
      </trkpt>
      <trkpt lat="43.69494" lon="7.26916">
        <ele>3.5999999046326</ele>
        <time>2019-04-15T09:41:47.000Z</time>
      </trkpt>
      <trkpt lat="43.69496" lon="7.26942">
        <ele>5</ele>
        <time>2019-04-15T09:41:53.000Z</time>
      </trkpt>
      <trkpt lat="43.69497" lon="7.26969">
        <ele>6.5999999046326</ele>
        <time>2019-04-15T09:41:59.000Z</time>
      </trkpt>
      <trkpt lat="43.69498" lon="7.26996">
        <ele>7.4000000953674</ele>
        <time>2019-04-15T09:42:05.000Z</time>
      </trkpt>
      <trkpt lat="43.69498" lon="7.27022">
        <ele>7.4000000953674</ele>
        <time>2019-04-15T09:42:11.000Z</time>
      </trkpt>
      <trkpt lat="43.69497" lon="7.27048">
        <ele>7.1999998092651</ele>
        <time>2019-04-15T09:42:17.000Z</time>
      </trkpt>
      <trkpt lat="43.69497" lon="7.27067">
        <ele>8</ele>
        <time>2019-04-15T09:42:22.000Z</time>
      </trkpt>
      <trkpt lat="43.695" lon="7.27093">
        <ele>10.60000038147</ele>
        <time>2019-04-15T09:42:28.000Z</time>
      </trkpt>
      <trkpt lat="43.69501" lon="7.27119">
        <ele>11.199999809265</ele>
        <time>2019-04-15T09:42:34.000Z</time>
      </trkpt>
      <trkpt lat="43.69503" lon="7.27145">
        <ele>11.800000190735</ele>
        <time>2019-04-15T09:42:40.000Z</time>
      </trkpt>
      <trkpt lat="43.69504" lon="7.27172">
        <ele>11</ele>
        <time>2019-04-15T09:42:46.000Z</time>
      </trkpt>
      <trkpt lat="43.69505" lon="7.27198">
        <ele>11</ele>
        <time>2019-04-15T09:42:52.000Z</time>
      </trkpt>
      <trkpt lat="43.69507" lon="7.27228">
        <ele>11.199999809265</ele>
        <time>2019-04-15T09:42:58.000Z</time>
      </trkpt>
      <trkpt lat="43.6951" lon="7.27254">
        <ele>10</ele>
        <time>2019-04-15T09:43:04.000Z</time>
      </trkpt>
      <trkpt lat="43.69509" lon="7.27281">
        <ele>8.6000003814697</ele>
        <time>2019-04-15T09:43:10.000Z</time>
      </trkpt>
      <trkpt lat="43.69509" lon="7.27307">
        <ele>7.4000000953674</ele>
        <time>2019-04-15T09:43:16.000Z</time>
      </trkpt>
      <trkpt lat="43.69508" lon="7.27335">
        <ele>7</ele>
        <time>2019-04-15T09:43:23.000Z</time>
      </trkpt>
      <trkpt lat="43.69509" lon="7.27368">
        <ele>6.1999998092651</ele>
        <time>2019-04-15T09:43:29.000Z</time>
      </trkpt>
      <trkpt lat="43.69509" lon="7.27394">
        <ele>5.5999999046326</ele>
        <time>2019-04-15T09:43:35.000Z</time>
      </trkpt>
      <trkpt lat="43.6951" lon="7.27425">
        <ele>5.1999998092651</ele>
        <time>2019-04-15T09:43:42.000Z</time>
      </trkpt>
      <trkpt lat="43.69508" lon="7.27452">
        <ele>4.5999999046326</ele>
        <time>2019-04-15T09:43:49.000Z</time>
      </trkpt>
      <trkpt lat="43.69507" lon="7.2748">
        <ele>4.1999998092651</ele>
        <time>2019-04-15T09:43:54.000Z</time>
      </trkpt>
      <trkpt lat="43.69505" lon="7.27507">
        <ele>4.8000001907349</ele>
        <time>2019-04-15T09:44:01.000Z</time>
      </trkpt>
      <trkpt lat="43.69503" lon="7.27535">
        <ele>4.8000001907349</ele>
        <time>2019-04-15T09:44:06.000Z</time>
      </trkpt>
      <trkpt lat="43.695" lon="7.27561">
        <ele>4.8000001907349</ele>
        <time>2019-04-15T09:44:13.000Z</time>
      </trkpt>
      <trkpt lat="43.69499" lon="7.27588">
        <ele>4.8000001907349</ele>
        <time>2019-04-15T09:44:18.000Z</time>
      </trkpt>
      <trkpt lat="43.69497" lon="7.27614">
        <ele>5.5999999046326</ele>
        <time>2019-04-15T09:44:25.000Z</time>
      </trkpt>
      <trkpt lat="43.69494" lon="7.2764">
        <ele>6.5999999046326</ele>
        <time>2019-04-15T09:44:31.000Z</time>
      </trkpt>
      <trkpt lat="43.69491" lon="7.27666">
        <ele>7.8000001907349</ele>
        <time>2019-04-15T09:44:37.000Z</time>
      </trkpt>
      <trkpt lat="43.69489" lon="7.27693">
        <ele>9.3999996185303</ele>
        <time>2019-04-15T09:44:42.000Z</time>
      </trkpt>
      <trkpt lat="43.69486" lon="7.27718">
        <ele>10.39999961853</ele>
        <time>2019-04-15T09:44:49.000Z</time>
      </trkpt>
      <trkpt lat="43.69483" lon="7.27745">
        <ele>9</ele>
        <time>2019-04-15T09:44:54.000Z</time>
      </trkpt>
      <trkpt lat="43.6948" lon="7.27772">
        <ele>10.199999809265</ele>
        <time>2019-04-15T09:45:00.000Z</time>
      </trkpt>
      <trkpt lat="43.69479" lon="7.27798">
        <ele>11.199999809265</ele>
        <time>2019-04-15T09:45:06.000Z</time>
      </trkpt>
      <trkpt lat="43.69472" lon="7.27824">
        <ele>10.39999961853</ele>
        <time>2019-04-15T09:45:12.000Z</time>
      </trkpt>
      <trkpt lat="43.69462" lon="7.27848">
        <ele>13</ele>
        <time>2019-04-15T09:45:18.000Z</time>
      </trkpt>
      <trkpt lat="43.6945" lon="7.2787">
        <ele>15.39999961853</ele>
        <time>2019-04-15T09:45:24.000Z</time>
      </trkpt>
      <trkpt lat="43.69438" lon="7.2789">
        <ele>17.39999961853</ele>
        <time>2019-04-15T09:45:30.000Z</time>
      </trkpt>
      <trkpt lat="43.69423" lon="7.27908">
        <ele>20</ele>
        <time>2019-04-15T09:45:36.000Z</time>
      </trkpt>
      <trkpt lat="43.6941" lon="7.27926">
        <ele>21.200000762939</ele>
        <time>2019-04-15T09:45:44.000Z</time>
      </trkpt>
      <trkpt lat="43.69391" lon="7.27933">
        <ele>20.200000762939</ele>
        <time>2019-04-15T09:45:50.000Z</time>
      </trkpt>
      <trkpt lat="43.6937" lon="7.27945">
        <ele>16.39999961853</ele>
        <time>2019-04-15T09:45:57.000Z</time>
      </trkpt>
      <trkpt lat="43.69356" lon="7.27965">
        <ele>12.199999809265</ele>
        <time>2019-04-15T09:46:05.000Z</time>
      </trkpt>
      <trkpt lat="43.69347" lon="7.27991">
        <ele>12.800000190735</ele>
        <time>2019-04-15T09:46:12.000Z</time>
      </trkpt>
      <trkpt lat="43.69339" lon="7.28014">
        <ele>14.199999809265</ele>
        <time>2019-04-15T09:46:17.000Z</time>
      </trkpt>
      <trkpt lat="43.69331" lon="7.28037">
        <ele>15.39999961853</ele>
        <time>2019-04-15T09:46:23.000Z</time>
      </trkpt>
      <trkpt lat="43.69324" lon="7.28062">
        <ele>16.200000762939</ele>
        <time>2019-04-15T09:46:29.000Z</time>
      </trkpt>
      <trkpt lat="43.69316" lon="7.28085">
        <ele>15.800000190735</ele>
        <time>2019-04-15T09:46:35.000Z</time>
      </trkpt>
      <trkpt lat="43.69312" lon="7.28111">
        <ele>14.60000038147</ele>
        <time>2019-04-15T09:46:41.000Z</time>
      </trkpt>
      <trkpt lat="43.69314" lon="7.28135">
        <ele>14</ele>
        <time>2019-04-15T09:46:48.000Z</time>
      </trkpt>
      <trkpt lat="43.6932" lon="7.2816">
        <ele>13.800000190735</ele>
        <time>2019-04-15T09:46:53.000Z</time>
      </trkpt>
      <trkpt lat="43.69327" lon="7.28184">
        <ele>10.800000190735</ele>
        <time>2019-04-15T09:47:00.000Z</time>
      </trkpt>
      <trkpt lat="43.69333" lon="7.28208">
        <ele>9.6000003814697</ele>
        <time>2019-04-15T09:47:06.000Z</time>
      </trkpt>
      <trkpt lat="43.69345" lon="7.28231">
        <ele>8.6000003814697</ele>
        <time>2019-04-15T09:47:12.000Z</time>
      </trkpt>
      <trkpt lat="43.6936" lon="7.28248">
        <ele>8.6000003814697</ele>
        <time>2019-04-15T09:47:18.000Z</time>
      </trkpt>
      <trkpt lat="43.69374" lon="7.28264">
        <ele>8</ele>
        <time>2019-04-15T09:47:23.000Z</time>
      </trkpt>
      <trkpt lat="43.69391" lon="7.28276">
        <ele>8.3999996185303</ele>
        <time>2019-04-15T09:47:29.000Z</time>
      </trkpt>
      <trkpt lat="43.69409" lon="7.28286">
        <ele>9.3999996185303</ele>
        <time>2019-04-15T09:47:35.000Z</time>
      </trkpt>
      <trkpt lat="43.69428" lon="7.28295">
        <ele>10.60000038147</ele>
        <time>2019-04-15T09:47:41.000Z</time>
      </trkpt>
      <trkpt lat="43.69445" lon="7.28303">
        <ele>11</ele>
        <time>2019-04-15T09:47:47.000Z</time>
      </trkpt>
      <trkpt lat="43.69464" lon="7.28306">
        <ele>11.60000038147</ele>
        <time>2019-04-15T09:47:53.000Z</time>
      </trkpt>
      <trkpt lat="43.69484" lon="7.28312">
        <ele>11.39999961853</ele>
        <time>2019-04-15T09:48:00.000Z</time>
      </trkpt>
      <trkpt lat="43.69504" lon="7.28318">
        <ele>11.39999961853</ele>
        <time>2019-04-15T09:48:06.000Z</time>
      </trkpt>
      <trkpt lat="43.69522" lon="7.28323">
        <ele>11.60000038147</ele>
        <time>2019-04-15T09:48:12.000Z</time>
      </trkpt>
      <trkpt lat="43.69542" lon="7.28328">
        <ele>11</ele>
        <time>2019-04-15T09:48:18.000Z</time>
      </trkpt>
      <trkpt lat="43.69562" lon="7.28331">
        <ele>10.800000190735</ele>
        <time>2019-04-15T09:48:24.000Z</time>
      </trkpt>
      <trkpt lat="43.69582" lon="7.28335">
        <ele>10.800000190735</ele>
        <time>2019-04-15T09:48:30.000Z</time>
      </trkpt>
      <trkpt lat="43.69602" lon="7.28339">
        <ele>10.800000190735</ele>
        <time>2019-04-15T09:48:36.000Z</time>
      </trkpt>
      <trkpt lat="43.6962" lon="7.28344">
        <ele>10.39999961853</ele>
        <time>2019-04-15T09:48:42.000Z</time>
      </trkpt>
      <trkpt lat="43.6964" lon="7.28346">
        <ele>10</ele>
        <time>2019-04-15T09:48:48.000Z</time>
      </trkpt>
      <trkpt lat="43.69645" lon="7.28351">
        <ele>9.3999996185303</ele>
        <time>2019-04-15T09:48:50.000Z</time>
      </trkpt>
      <trkpt lat="43.69656" lon="7.28371">
        <ele>7</ele>
        <time>2019-04-15T09:48:55.000Z</time>
      </trkpt>
      <trkpt lat="43.69659" lon="7.28373">
        <ele>6.8000001907349</ele>
        <time>2019-04-15T09:48:56.000Z</time>
      </trkpt>
      <trkpt lat="43.69678" lon="7.28377">
        <ele>6.4000000953674</ele>
        <time>2019-04-15T09:49:02.000Z</time>
      </trkpt>
      <trkpt lat="43.69698" lon="7.2838">
        <ele>6</ele>
        <time>2019-04-15T09:49:09.000Z</time>
      </trkpt>
      <trkpt lat="43.69718" lon="7.2838">
        <ele>6.4000000953674</ele>
        <time>2019-04-15T09:49:15.000Z</time>
      </trkpt>
      <trkpt lat="43.69738" lon="7.2838">
        <ele>6.5999999046326</ele>
        <time>2019-04-15T09:49:21.000Z</time>
      </trkpt>
      <trkpt lat="43.69757" lon="7.28383">
        <ele>6.5999999046326</ele>
        <time>2019-04-15T09:49:27.000Z</time>
      </trkpt>
      <trkpt lat="43.69777" lon="7.28389">
        <ele>6.5999999046326</ele>
        <time>2019-04-15T09:49:34.000Z</time>
      </trkpt>
      <trkpt lat="43.69795" lon="7.28396">
        <ele>6.4000000953674</ele>
        <time>2019-04-15T09:49:40.000Z</time>
      </trkpt>
      <trkpt lat="43.69809" lon="7.28399">
        <ele>6.8000001907349</ele>
        <time>2019-04-15T09:49:45.000Z</time>
      </trkpt>
      <trkpt lat="43.6982" lon="7.28418">
        <ele>5.1999998092651</ele>
        <time>2019-04-15T09:49:50.000Z</time>
      </trkpt>
      <trkpt lat="43.69821" lon="7.28429">
        <ele>5</ele>
        <time>2019-04-15T09:49:52.000Z</time>
      </trkpt>
      <trkpt lat="43.69823" lon="7.28455">
        <ele>4.5999999046326</ele>
        <time>2019-04-15T09:49:58.000Z</time>
      </trkpt>
      <trkpt lat="43.69823" lon="7.2848">
        <ele>3.7999999523163</ele>
        <time>2019-04-15T09:50:03.000Z</time>
      </trkpt>
      <trkpt lat="43.69824" lon="7.28507">
        <ele>3.5999999046326</ele>
        <time>2019-04-15T09:50:08.000Z</time>
      </trkpt>
      <trkpt lat="43.69822" lon="7.28532">
        <ele>4</ele>
        <time>2019-04-15T09:50:13.000Z</time>
      </trkpt>
      <trkpt lat="43.69814" lon="7.28559">
        <ele>4.1999998092651</ele>
        <time>2019-04-15T09:50:19.000Z</time>
      </trkpt>
      <trkpt lat="43.69812" lon="7.28588">
        <ele>5</ele>
        <time>2019-04-15T09:50:25.000Z</time>
      </trkpt>
      <trkpt lat="43.69809" lon="7.28615">
        <ele>6.4000000953674</ele>
        <time>2019-04-15T09:50:31.000Z</time>
      </trkpt>
      <trkpt lat="43.69792" lon="7.28627">
        <ele>8</ele>
        <time>2019-04-15T09:50:37.000Z</time>
      </trkpt>
      <trkpt lat="43.69771" lon="7.28626">
        <ele>8</ele>
        <time>2019-04-15T09:50:43.000Z</time>
      </trkpt>
      <trkpt lat="43.69752" lon="7.28623">
        <ele>7.8000001907349</ele>
        <time>2019-04-15T09:50:48.000Z</time>
      </trkpt>
      <trkpt lat="43.69732" lon="7.28622">
        <ele>7.5999999046326</ele>
        <time>2019-04-15T09:50:53.000Z</time>
      </trkpt>
      <trkpt lat="43.69714" lon="7.28618">
        <ele>6.8000001907349</ele>
        <time>2019-04-15T09:50:58.000Z</time>
      </trkpt>
      <trkpt lat="43.69695" lon="7.28614">
        <ele>6</ele>
        <time>2019-04-15T09:51:03.000Z</time>
      </trkpt>
      <trkpt lat="43.69675" lon="7.28611">
        <ele>5.8000001907349</ele>
        <time>2019-04-15T09:51:09.000Z</time>
      </trkpt>
      <trkpt lat="43.69655" lon="7.28606">
        <ele>6.4000000953674</ele>
        <time>2019-04-15T09:51:15.000Z</time>
      </trkpt>
      <trkpt lat="43.69637" lon="7.28601">
        <ele>6.5999999046326</ele>
        <time>2019-04-15T09:51:21.000Z</time>
      </trkpt>
      <trkpt lat="43.69618" lon="7.28597">
        <ele>7</ele>
        <time>2019-04-15T09:51:27.000Z</time>
      </trkpt>
      <trkpt lat="43.69599" lon="7.28599">
        <ele>7</ele>
        <time>2019-04-15T09:51:34.000Z</time>
      </trkpt>
      <trkpt lat="43.6958" lon="7.28595">
        <ele>6.8000001907349</ele>
        <time>2019-04-15T09:51:39.000Z</time>
      </trkpt>
      <trkpt lat="43.6956" lon="7.28593">
        <ele>6.5999999046326</ele>
        <time>2019-04-15T09:51:46.000Z</time>
      </trkpt>
      <trkpt lat="43.69539" lon="7.28583">
        <ele>6.1999998092651</ele>
        <time>2019-04-15T09:51:52.000Z</time>
      </trkpt>
      <trkpt lat="43.6952" lon="7.2858">
        <ele>6</ele>
        <time>2019-04-15T09:51:58.000Z</time>
      </trkpt>
      <trkpt lat="43.69501" lon="7.28578">
        <ele>5</ele>
        <time>2019-04-15T09:52:03.000Z</time>
      </trkpt>
      <trkpt lat="43.69483" lon="7.28583">
        <ele>4</ele>
        <time>2019-04-15T09:52:09.000Z</time>
      </trkpt>
      <trkpt lat="43.69466" lon="7.28593">
        <ele>3.7999999523163</ele>
        <time>2019-04-15T09:52:15.000Z</time>
      </trkpt>
      <trkpt lat="43.69448" lon="7.28596">
        <ele>3</ele>
        <time>2019-04-15T09:52:22.000Z</time>
      </trkpt>
      <trkpt lat="43.69429" lon="7.28596">
        <ele>2.2000000476837</ele>
        <time>2019-04-15T09:52:28.000Z</time>
      </trkpt>
      <trkpt lat="43.69411" lon="7.28607">
        <ele>3.2000000476837</ele>
        <time>2019-04-15T09:52:35.000Z</time>
      </trkpt>
      <trkpt lat="43.69404" lon="7.28638">
        <ele>4.8000001907349</ele>
        <time>2019-04-15T09:52:43.000Z</time>
      </trkpt>
      <trkpt lat="43.69401" lon="7.28664">
        <ele>7.4000000953674</ele>
        <time>2019-04-15T09:52:48.000Z</time>
      </trkpt>
      <trkpt lat="43.69397" lon="7.2869">
        <ele>9.6000003814697</ele>
        <time>2019-04-15T09:52:55.000Z</time>
      </trkpt>
      <trkpt lat="43.69392" lon="7.28715">
        <ele>10.800000190735</ele>
        <time>2019-04-15T09:53:00.000Z</time>
      </trkpt>
      <trkpt lat="43.69387" lon="7.28739">
        <ele>10.60000038147</ele>
        <time>2019-04-15T09:53:07.000Z</time>
      </trkpt>
      <trkpt lat="43.69381" lon="7.28768">
        <ele>16.60000038147</ele>
        <time>2019-04-15T09:53:13.000Z</time>
      </trkpt>
      <trkpt lat="43.69376" lon="7.28794">
        <ele>16.799999237061</ele>
        <time>2019-04-15T09:53:20.000Z</time>
      </trkpt>
      <trkpt lat="43.6937" lon="7.28819">
        <ele>16.60000038147</ele>
        <time>2019-04-15T09:53:26.000Z</time>
      </trkpt>
      <trkpt lat="43.69365" lon="7.28845">
        <ele>13.39999961853</ele>
        <time>2019-04-15T09:53:32.000Z</time>
      </trkpt>
      <trkpt lat="43.69358" lon="7.28869">
        <ele>9.6000003814697</ele>
        <time>2019-04-15T09:53:38.000Z</time>
      </trkpt>
      <trkpt lat="43.69346" lon="7.28896">
        <ele>4</ele>
        <time>2019-04-15T09:53:44.000Z</time>
      </trkpt>
      <trkpt lat="43.69335" lon="7.28918">
        <ele>3.4000000953674</ele>
        <time>2019-04-15T09:53:50.000Z</time>
      </trkpt>
      <trkpt lat="43.69329" lon="7.28942">
        <ele>3.4000000953674</ele>
        <time>2019-04-15T09:53:57.000Z</time>
      </trkpt>
      <trkpt lat="43.69319" lon="7.28966">
        <ele>3.4000000953674</ele>
        <time>2019-04-15T09:54:03.000Z</time>
      </trkpt>
      <trkpt lat="43.69305" lon="7.28987">
        <ele>2.5999999046326</ele>
        <time>2019-04-15T09:54:08.000Z</time>
      </trkpt>
      <trkpt lat="43.69287" lon="7.29006">
        <ele>3</ele>
        <time>2019-04-15T09:54:15.000Z</time>
      </trkpt>
      <trkpt lat="43.69271" lon="7.29018">
        <ele>3.2000000476837</ele>
        <time>2019-04-15T09:54:22.000Z</time>
      </trkpt>
      <trkpt lat="43.6926" lon="7.29029">
        <ele>4.8000001907349</ele>
        <time>2019-04-15T09:54:26.000Z</time>
      </trkpt>
      <trkpt lat="43.6926" lon="7.29034">
        <ele>5.1999998092651</ele>
        <time>2019-04-15T09:54:28.000Z</time>
      </trkpt>
      <trkpt lat="43.69271" lon="7.29031">
        <ele>4.4000000953674</ele>
        <time>2019-04-15T09:54:32.000Z</time>
      </trkpt>
      <trkpt lat="43.69291" lon="7.29012">
        <ele>3.7999999523163</ele>
        <time>2019-04-15T09:54:38.000Z</time>
      </trkpt>
      <trkpt lat="43.69306" lon="7.28992">
        <ele>2.7999999523163</ele>
        <time>2019-04-15T09:54:45.000Z</time>
      </trkpt>
      <trkpt lat="43.69319" lon="7.28969">
        <ele>3.4000000953674</ele>
        <time>2019-04-15T09:54:50.000Z</time>
      </trkpt>
      <trkpt lat="43.69329" lon="7.28949">
        <ele>3.5999999046326</ele>
        <time>2019-04-15T09:54:56.000Z</time>
      </trkpt>
      <trkpt lat="43.69338" lon="7.28921">
        <ele>3.5999999046326</ele>
        <time>2019-04-15T09:55:03.000Z</time>
      </trkpt>
      <trkpt lat="43.69345" lon="7.28897">
        <ele>4</ele>
        <time>2019-04-15T09:55:09.000Z</time>
      </trkpt>
      <trkpt lat="43.69356" lon="7.28873">
        <ele>8.8000001907349</ele>
        <time>2019-04-15T09:55:15.000Z</time>
      </trkpt>
      <trkpt lat="43.69365" lon="7.2885">
        <ele>12.800000190735</ele>
        <time>2019-04-15T09:55:21.000Z</time>
      </trkpt>
      <trkpt lat="43.69376" lon="7.28826">
        <ele>16.799999237061</ele>
        <time>2019-04-15T09:55:27.000Z</time>
      </trkpt>
      <trkpt lat="43.69382" lon="7.28801">
        <ele>17</ele>
        <time>2019-04-15T09:55:33.000Z</time>
      </trkpt>
      <trkpt lat="43.69387" lon="7.28777">
        <ele>17</ele>
        <time>2019-04-15T09:55:39.000Z</time>
      </trkpt>
      <trkpt lat="43.69392" lon="7.28752">
        <ele>15</ele>
        <time>2019-04-15T09:55:45.000Z</time>
      </trkpt>
      <trkpt lat="43.69397" lon="7.28727">
        <ele>11</ele>
        <time>2019-04-15T09:55:51.000Z</time>
      </trkpt>
      <trkpt lat="43.69402" lon="7.28703">
        <ele>10.60000038147</ele>
        <time>2019-04-15T09:55:57.000Z</time>
      </trkpt>
      <trkpt lat="43.69407" lon="7.28678">
        <ele>8.3999996185303</ele>
        <time>2019-04-15T09:56:03.000Z</time>
      </trkpt>
      <trkpt lat="43.69412" lon="7.28653">
        <ele>5.1999998092651</ele>
        <time>2019-04-15T09:56:09.000Z</time>
      </trkpt>
      <trkpt lat="43.69413" lon="7.28626">
        <ele>4.4000000953674</ele>
        <time>2019-04-15T09:56:15.000Z</time>
      </trkpt>
      <trkpt lat="43.69415" lon="7.28599">
        <ele>2.5999999046326</ele>
        <time>2019-04-15T09:56:21.000Z</time>
      </trkpt>
      <trkpt lat="43.69429" lon="7.2858">
        <ele>1.2000000476837</ele>
        <time>2019-04-15T09:56:27.000Z</time>
      </trkpt>
      <trkpt lat="43.6945" lon="7.28578">
        <ele>1.7999999523163</ele>
        <time>2019-04-15T09:56:33.000Z</time>
      </trkpt>
      <trkpt lat="43.69472" lon="7.28574">
        <ele>3.2000000476837</ele>
        <time>2019-04-15T09:56:40.000Z</time>
      </trkpt>
      <trkpt lat="43.6949" lon="7.28564">
        <ele>4.5999999046326</ele>
        <time>2019-04-15T09:56:47.000Z</time>
      </trkpt>
      <trkpt lat="43.69511" lon="7.2856">
        <ele>5.1999998092651</ele>
        <time>2019-04-15T09:56:53.000Z</time>
      </trkpt>
      <trkpt lat="43.69531" lon="7.28558">
        <ele>5</ele>
        <time>2019-04-15T09:56:59.000Z</time>
      </trkpt>
      <trkpt lat="43.69551" lon="7.28554">
        <ele>4.8000001907349</ele>
        <time>2019-04-15T09:57:05.000Z</time>
      </trkpt>
      <trkpt lat="43.69571" lon="7.28547">
        <ele>4.4000000953674</ele>
        <time>2019-04-15T09:57:11.000Z</time>
      </trkpt>
      <trkpt lat="43.69591" lon="7.28543">
        <ele>4</ele>
        <time>2019-04-15T09:57:16.000Z</time>
      </trkpt>
      <trkpt lat="43.6961" lon="7.28545">
        <ele>3.5999999046326</ele>
        <time>2019-04-15T09:57:22.000Z</time>
      </trkpt>
      <trkpt lat="43.69629" lon="7.28547">
        <ele>2.7999999523163</ele>
        <time>2019-04-15T09:57:29.000Z</time>
      </trkpt>
      <trkpt lat="43.69651" lon="7.28551">
        <ele>2</ele>
        <time>2019-04-15T09:57:35.000Z</time>
      </trkpt>
      <trkpt lat="43.69671" lon="7.28562">
        <ele>1.7999999523163</ele>
        <time>2019-04-15T09:57:41.000Z</time>
      </trkpt>
      <trkpt lat="43.69688" lon="7.28576">
        <ele>1.7999999523163</ele>
        <time>2019-04-15T09:57:46.000Z</time>
      </trkpt>
      <trkpt lat="43.69697" lon="7.28581">
        <ele>2.2000000476837</ele>
        <time>2019-04-15T09:57:50.000Z</time>
      </trkpt>
      <trkpt lat="43.69716" lon="7.2859">
        <ele>3.2000000476837</ele>
        <time>2019-04-15T09:57:56.000Z</time>
      </trkpt>
      <trkpt lat="43.69734" lon="7.28598">
        <ele>4.4000000953674</ele>
        <time>2019-04-15T09:58:01.000Z</time>
      </trkpt>
      <trkpt lat="43.69753" lon="7.286">
        <ele>4.5999999046326</ele>
        <time>2019-04-15T09:58:07.000Z</time>
      </trkpt>
      <trkpt lat="43.69774" lon="7.28603">
        <ele>5</ele>
        <time>2019-04-15T09:58:14.000Z</time>
      </trkpt>
      <trkpt lat="43.69793" lon="7.28605">
        <ele>5</ele>
        <time>2019-04-15T09:58:20.000Z</time>
      </trkpt>
      <trkpt lat="43.69805" lon="7.28596">
        <ele>5</ele>
        <time>2019-04-15T09:58:25.000Z</time>
      </trkpt>
      <trkpt lat="43.69805" lon="7.28571">
        <ele>4</ele>
        <time>2019-04-15T09:58:30.000Z</time>
      </trkpt>
      <trkpt lat="43.69808" lon="7.28545">
        <ele>3.4000000953674</ele>
        <time>2019-04-15T09:58:36.000Z</time>
      </trkpt>
      <trkpt lat="43.69808" lon="7.2852">
        <ele>2.7999999523163</ele>
        <time>2019-04-15T09:58:42.000Z</time>
      </trkpt>
      <trkpt lat="43.69812" lon="7.28493">
        <ele>2.5999999046326</ele>
        <time>2019-04-15T09:58:48.000Z</time>
      </trkpt>
      <trkpt lat="43.69813" lon="7.28466">
        <ele>3.5999999046326</ele>
        <time>2019-04-15T09:58:54.000Z</time>
      </trkpt>
      <trkpt lat="43.69815" lon="7.2844">
        <ele>4.4000000953674</ele>
        <time>2019-04-15T09:59:00.000Z</time>
      </trkpt>
      <trkpt lat="43.69813" lon="7.28415">
        <ele>5</ele>
        <time>2019-04-15T09:59:06.000Z</time>
      </trkpt>
      <trkpt lat="43.69811" lon="7.28413">
        <ele>5</ele>
        <time>2019-04-15T09:59:07.000Z</time>
      </trkpt>
      <trkpt lat="43.69792" lon="7.28412">
        <ele>4.1999998092651</ele>
        <time>2019-04-15T09:59:13.000Z</time>
      </trkpt>
      <trkpt lat="43.69773" lon="7.28413">
        <ele>3.2000000476837</ele>
        <time>2019-04-15T09:59:19.000Z</time>
      </trkpt>
      <trkpt lat="43.69753" lon="7.28414">
        <ele>2.7999999523163</ele>
        <time>2019-04-15T09:59:25.000Z</time>
      </trkpt>
      <trkpt lat="43.69734" lon="7.28414">
        <ele>2.5999999046326</ele>
        <time>2019-04-15T09:59:31.000Z</time>
      </trkpt>
      <trkpt lat="43.69716" lon="7.2841">
        <ele>2.7999999523163</ele>
        <time>2019-04-15T09:59:37.000Z</time>
      </trkpt>
      <trkpt lat="43.69697" lon="7.28405">
        <ele>3.2000000476837</ele>
        <time>2019-04-15T09:59:43.000Z</time>
      </trkpt>
      <trkpt lat="43.69678" lon="7.28399">
        <ele>3.7999999523163</ele>
        <time>2019-04-15T09:59:49.000Z</time>
      </trkpt>
      <trkpt lat="43.69659" lon="7.28395">
        <ele>4</ele>
        <time>2019-04-15T09:59:55.000Z</time>
      </trkpt>
      <trkpt lat="43.69639" lon="7.28391">
        <ele>4.4000000953674</ele>
        <time>2019-04-15T10:00:01.000Z</time>
      </trkpt>
      <trkpt lat="43.69619" lon="7.28389">
        <ele>4.4000000953674</ele>
        <time>2019-04-15T10:00:07.000Z</time>
      </trkpt>
      <trkpt lat="43.69601" lon="7.2838">
        <ele>5.4000000953674</ele>
        <time>2019-04-15T10:00:13.000Z</time>
      </trkpt>
      <trkpt lat="43.69582" lon="7.28375">
        <ele>5.5999999046326</ele>
        <time>2019-04-15T10:00:19.000Z</time>
      </trkpt>
      <trkpt lat="43.69563" lon="7.28372">
        <ele>5.5999999046326</ele>
        <time>2019-04-15T10:00:25.000Z</time>
      </trkpt>
      <trkpt lat="43.69544" lon="7.28373">
        <ele>5.8000001907349</ele>
        <time>2019-04-15T10:00:31.000Z</time>
      </trkpt>
      <trkpt lat="43.69525" lon="7.28374">
        <ele>6.1999998092651</ele>
        <time>2019-04-15T10:00:37.000Z</time>
      </trkpt>
      <trkpt lat="43.69506" lon="7.28371">
        <ele>5.5999999046326</ele>
        <time>2019-04-15T10:00:43.000Z</time>
      </trkpt>
      <trkpt lat="43.69489" lon="7.28358">
        <ele>5.8000001907349</ele>
        <time>2019-04-15T10:00:49.000Z</time>
      </trkpt>
      <trkpt lat="43.69473" lon="7.28345">
        <ele>5.8000001907349</ele>
        <time>2019-04-15T10:00:55.000Z</time>
      </trkpt>
      <trkpt lat="43.69455" lon="7.28335">
        <ele>5.8000001907349</ele>
        <time>2019-04-15T10:01:01.000Z</time>
      </trkpt>
      <trkpt lat="43.69437" lon="7.28326">
        <ele>5.8000001907349</ele>
        <time>2019-04-15T10:01:07.000Z</time>
      </trkpt>
      <trkpt lat="43.69419" lon="7.28315">
        <ele>5.5999999046326</ele>
        <time>2019-04-15T10:01:14.000Z</time>
      </trkpt>
      <trkpt lat="43.694" lon="7.28302">
        <ele>6.1999998092651</ele>
        <time>2019-04-15T10:01:22.000Z</time>
      </trkpt>
      <trkpt lat="43.69385" lon="7.28289">
        <ele>6.8000001907349</ele>
        <time>2019-04-15T10:01:28.000Z</time>
      </trkpt>
      <trkpt lat="43.69368" lon="7.28272">
        <ele>7.4000000953674</ele>
        <time>2019-04-15T10:01:34.000Z</time>
      </trkpt>
      <trkpt lat="43.69354" lon="7.28256">
        <ele>7.8000001907349</ele>
        <time>2019-04-15T10:01:40.000Z</time>
      </trkpt>
      <trkpt lat="43.69339" lon="7.28231">
        <ele>8.3999996185303</ele>
        <time>2019-04-15T10:01:47.000Z</time>
      </trkpt>
      <trkpt lat="43.69327" lon="7.28202">
        <ele>9.8000001907349</ele>
        <time>2019-04-15T10:01:54.000Z</time>
      </trkpt>
      <trkpt lat="43.69317" lon="7.28174">
        <ele>11</ele>
        <time>2019-04-15T10:02:01.000Z</time>
      </trkpt>
      <trkpt lat="43.69309" lon="7.28151">
        <ele>14</ele>
        <time>2019-04-15T10:02:08.000Z</time>
      </trkpt>
      <trkpt lat="43.69303" lon="7.28127">
        <ele>14.199999809265</ele>
        <time>2019-04-15T10:02:14.000Z</time>
      </trkpt>
      <trkpt lat="43.69301" lon="7.281">
        <ele>14.800000190735</ele>
        <time>2019-04-15T10:02:20.000Z</time>
      </trkpt>
      <trkpt lat="43.69306" lon="7.28073">
        <ele>15.800000190735</ele>
        <time>2019-04-15T10:02:26.000Z</time>
      </trkpt>
      <trkpt lat="43.69314" lon="7.28047">
        <ele>16</ele>
        <time>2019-04-15T10:02:32.000Z</time>
      </trkpt>
      <trkpt lat="43.69323" lon="7.28022">
        <ele>15</ele>
        <time>2019-04-15T10:02:38.000Z</time>
      </trkpt>
      <trkpt lat="43.69332" lon="7.27997">
        <ele>13.60000038147</ele>
        <time>2019-04-15T10:02:44.000Z</time>
      </trkpt>
      <trkpt lat="43.69341" lon="7.27972">
        <ele>11.800000190735</ele>
        <time>2019-04-15T10:02:50.000Z</time>
      </trkpt>
      <trkpt lat="43.69349" lon="7.27946">
        <ele>10</ele>
        <time>2019-04-15T10:02:55.000Z</time>
      </trkpt>
      <trkpt lat="43.69356" lon="7.27916">
        <ele>9.3999996185303</ele>
        <time>2019-04-15T10:03:02.000Z</time>
      </trkpt>
      <trkpt lat="43.69376" lon="7.279">
        <ele>12.199999809265</ele>
        <time>2019-04-15T10:03:09.000Z</time>
      </trkpt>
      <trkpt lat="43.69399" lon="7.27897">
        <ele>16.200000762939</ele>
        <time>2019-04-15T10:03:16.000Z</time>
      </trkpt>
      <trkpt lat="43.6942" lon="7.27888">
        <ele>18.200000762939</ele>
        <time>2019-04-15T10:03:23.000Z</time>
      </trkpt>
      <trkpt lat="43.69435" lon="7.27872">
        <ele>13.60000038147</ele>
        <time>2019-04-15T10:03:30.000Z</time>
      </trkpt>
      <trkpt lat="43.69449" lon="7.27853">
        <ele>11.800000190735</ele>
        <time>2019-04-15T10:03:36.000Z</time>
      </trkpt>
      <trkpt lat="43.6946" lon="7.27833">
        <ele>9.3999996185303</ele>
        <time>2019-04-15T10:03:42.000Z</time>
      </trkpt>
      <trkpt lat="43.69469" lon="7.2781">
        <ele>9.8000001907349</ele>
        <time>2019-04-15T10:03:48.000Z</time>
      </trkpt>
      <trkpt lat="43.69475" lon="7.27784">
        <ele>10.39999961853</ele>
        <time>2019-04-15T10:03:54.000Z</time>
      </trkpt>
      <trkpt lat="43.69476" lon="7.27757">
        <ele>8.8000001907349</ele>
        <time>2019-04-15T10:04:00.000Z</time>
      </trkpt>
      <trkpt lat="43.69478" lon="7.27729">
        <ele>9</ele>
        <time>2019-04-15T10:04:06.000Z</time>
      </trkpt>
      <trkpt lat="43.69481" lon="7.27702">
        <ele>9.8000001907349</ele>
        <time>2019-04-15T10:04:12.000Z</time>
      </trkpt>
      <trkpt lat="43.69484" lon="7.27674">
        <ele>8.1999998092651</ele>
        <time>2019-04-15T10:04:18.000Z</time>
      </trkpt>
      <trkpt lat="43.69487" lon="7.27646">
        <ele>6.8000001907349</ele>
        <time>2019-04-15T10:04:24.000Z</time>
      </trkpt>
      <trkpt lat="43.6949" lon="7.2762">
        <ele>5.8000001907349</ele>
        <time>2019-04-15T10:04:30.000Z</time>
      </trkpt>
      <trkpt lat="43.69493" lon="7.27592">
        <ele>4.8000001907349</ele>
        <time>2019-04-15T10:04:36.000Z</time>
      </trkpt>
      <trkpt lat="43.69495" lon="7.27564">
        <ele>4.5999999046326</ele>
        <time>2019-04-15T10:04:42.000Z</time>
      </trkpt>
      <trkpt lat="43.69498" lon="7.27537">
        <ele>4.8000001907349</ele>
        <time>2019-04-15T10:04:48.000Z</time>
      </trkpt>
      <trkpt lat="43.69499" lon="7.27509">
        <ele>4.8000001907349</ele>
        <time>2019-04-15T10:04:53.000Z</time>
      </trkpt>
      <trkpt lat="43.69501" lon="7.27482">
        <ele>4</ele>
        <time>2019-04-15T10:04:59.000Z</time>
      </trkpt>
      <trkpt lat="43.69503" lon="7.27455">
        <ele>4.1999998092651</ele>
        <time>2019-04-15T10:05:05.000Z</time>
      </trkpt>
      <trkpt lat="43.69504" lon="7.27428">
        <ele>4.5999999046326</ele>
        <time>2019-04-15T10:05:11.000Z</time>
      </trkpt>
      <trkpt lat="43.69505" lon="7.27401">
        <ele>5</ele>
        <time>2019-04-15T10:05:17.000Z</time>
      </trkpt>
      <trkpt lat="43.69503" lon="7.27373">
        <ele>5.5999999046326</ele>
        <time>2019-04-15T10:05:23.000Z</time>
      </trkpt>
      <trkpt lat="43.69499" lon="7.27346">
        <ele>5.8000001907349</ele>
        <time>2019-04-15T10:05:29.000Z</time>
      </trkpt>
      <trkpt lat="43.69497" lon="7.27318">
        <ele>5.8000001907349</ele>
        <time>2019-04-15T10:05:35.000Z</time>
      </trkpt>
      <trkpt lat="43.69496" lon="7.27291">
        <ele>6.1999998092651</ele>
        <time>2019-04-15T10:05:41.000Z</time>
      </trkpt>
      <trkpt lat="43.69496" lon="7.27265">
        <ele>7.1999998092651</ele>
        <time>2019-04-15T10:05:47.000Z</time>
      </trkpt>
      <trkpt lat="43.69493" lon="7.27237">
        <ele>8.8000001907349</ele>
        <time>2019-04-15T10:05:53.000Z</time>
      </trkpt>
      <trkpt lat="43.69494" lon="7.2721">
        <ele>10.39999961853</ele>
        <time>2019-04-15T10:05:59.000Z</time>
      </trkpt>
      <trkpt lat="43.69494" lon="7.27181">
        <ele>10.39999961853</ele>
        <time>2019-04-15T10:06:05.000Z</time>
      </trkpt>
      <trkpt lat="43.69494" lon="7.27153">
        <ele>11.60000038147</ele>
        <time>2019-04-15T10:06:11.000Z</time>
      </trkpt>
      <trkpt lat="43.69493" lon="7.27126">
        <ele>11.39999961853</ele>
        <time>2019-04-15T10:06:17.000Z</time>
      </trkpt>
      <trkpt lat="43.69493" lon="7.27099">
        <ele>10.800000190735</ele>
        <time>2019-04-15T10:06:23.000Z</time>
      </trkpt>
      <trkpt lat="43.69491" lon="7.27072">
        <ele>8</ele>
        <time>2019-04-15T10:06:29.000Z</time>
      </trkpt>
      <trkpt lat="43.6949" lon="7.27046">
        <ele>6.4000000953674</ele>
        <time>2019-04-15T10:06:35.000Z</time>
      </trkpt>
      <trkpt lat="43.69492" lon="7.27018">
        <ele>6.5999999046326</ele>
        <time>2019-04-15T10:06:41.000Z</time>
      </trkpt>
      <trkpt lat="43.69492" lon="7.2699">
        <ele>6.5999999046326</ele>
        <time>2019-04-15T10:06:47.000Z</time>
      </trkpt>
      <trkpt lat="43.69491" lon="7.26962">
        <ele>5.5999999046326</ele>
        <time>2019-04-15T10:06:53.000Z</time>
      </trkpt>
      <trkpt lat="43.6949" lon="7.26934">
        <ele>4.1999998092651</ele>
        <time>2019-04-15T10:06:59.000Z</time>
      </trkpt>
      <trkpt lat="43.69487" lon="7.26906">
        <ele>2.7999999523163</ele>
        <time>2019-04-15T10:07:05.000Z</time>
      </trkpt>
      <trkpt lat="43.69485" lon="7.26877">
        <ele>2.5999999046326</ele>
        <time>2019-04-15T10:07:11.000Z</time>
      </trkpt>
      <trkpt lat="43.69485" lon="7.26848">
        <ele>2</ele>
        <time>2019-04-15T10:07:17.000Z</time>
      </trkpt>
      <trkpt lat="43.69484" lon="7.2682">
        <ele>2.2000000476837</ele>
        <time>2019-04-15T10:07:23.000Z</time>
      </trkpt>
      <trkpt lat="43.69484" lon="7.26791">
        <ele>4.4000000953674</ele>
        <time>2019-04-15T10:07:29.000Z</time>
      </trkpt>
      <trkpt lat="43.69483" lon="7.26764">
        <ele>4.8000001907349</ele>
        <time>2019-04-15T10:07:35.000Z</time>
      </trkpt>
      <trkpt lat="43.69482" lon="7.26736">
        <ele>5.4000000953674</ele>
        <time>2019-04-15T10:07:41.000Z</time>
      </trkpt>
      <trkpt lat="43.69481" lon="7.2671">
        <ele>6.4000000953674</ele>
        <time>2019-04-15T10:07:47.000Z</time>
      </trkpt>
      <trkpt lat="43.69478" lon="7.26682">
        <ele>7.4000000953674</ele>
        <time>2019-04-15T10:07:53.000Z</time>
      </trkpt>
      <trkpt lat="43.69476" lon="7.26655">
        <ele>7.5999999046326</ele>
        <time>2019-04-15T10:07:59.000Z</time>
      </trkpt>
      <trkpt lat="43.69476" lon="7.26628">
        <ele>6.4000000953674</ele>
        <time>2019-04-15T10:08:05.000Z</time>
      </trkpt>
      <trkpt lat="43.69476" lon="7.266">
        <ele>7</ele>
        <time>2019-04-15T10:08:11.000Z</time>
      </trkpt>
      <trkpt lat="43.69475" lon="7.26572">
        <ele>7.5999999046326</ele>
        <time>2019-04-15T10:08:17.000Z</time>
      </trkpt>
      <trkpt lat="43.69475" lon="7.26545">
        <ele>5.5999999046326</ele>
        <time>2019-04-15T10:08:23.000Z</time>
      </trkpt>
      <trkpt lat="43.69474" lon="7.26519">
        <ele>4.1999998092651</ele>
        <time>2019-04-15T10:08:29.000Z</time>
      </trkpt>
      <trkpt lat="43.69473" lon="7.26492">
        <ele>3.2000000476837</ele>
        <time>2019-04-15T10:08:35.000Z</time>
      </trkpt>
      <trkpt lat="43.69471" lon="7.26463">
        <ele>3.7999999523163</ele>
        <time>2019-04-15T10:08:41.000Z</time>
      </trkpt>
      <trkpt lat="43.69469" lon="7.26436">
        <ele>3.7999999523163</ele>
        <time>2019-04-15T10:08:47.000Z</time>
      </trkpt>
      <trkpt lat="43.69465" lon="7.26409">
        <ele>3.7999999523163</ele>
        <time>2019-04-15T10:08:54.000Z</time>
      </trkpt>
      <trkpt lat="43.69465" lon="7.26378">
        <ele>6.4000000953674</ele>
        <time>2019-04-15T10:09:02.000Z</time>
      </trkpt>
      <trkpt lat="43.69467" lon="7.26352">
        <ele>8.3999996185303</ele>
        <time>2019-04-15T10:09:08.000Z</time>
      </trkpt>
      <trkpt lat="43.69466" lon="7.26325">
        <ele>8.8000001907349</ele>
        <time>2019-04-15T10:09:14.000Z</time>
      </trkpt>
      <trkpt lat="43.69464" lon="7.26299">
        <ele>6.4000000953674</ele>
        <time>2019-04-15T10:09:20.000Z</time>
      </trkpt>
      <trkpt lat="43.69461" lon="7.26272">
        <ele>4</ele>
        <time>2019-04-15T10:09:26.000Z</time>
      </trkpt>
      <trkpt lat="43.69458" lon="7.26243">
        <ele>3.5999999046326</ele>
        <time>2019-04-15T10:09:33.000Z</time>
      </trkpt>
      <trkpt lat="43.69457" lon="7.26211">
        <ele>3.4000000953674</ele>
        <time>2019-04-15T10:09:41.000Z</time>
      </trkpt>
      <trkpt lat="43.69454" lon="7.26182">
        <ele>3</ele>
        <time>2019-04-15T10:09:48.000Z</time>
      </trkpt>
      <trkpt lat="43.69453" lon="7.26154">
        <ele>2.5999999046326</ele>
        <time>2019-04-15T10:09:54.000Z</time>
      </trkpt>
      <trkpt lat="43.6945" lon="7.26127">
        <ele>2.7999999523163</ele>
        <time>2019-04-15T10:10:01.000Z</time>
      </trkpt>
      <trkpt lat="43.69445" lon="7.26099">
        <ele>2.7999999523163</ele>
        <time>2019-04-15T10:10:06.000Z</time>
      </trkpt>
      <trkpt lat="43.69441" lon="7.2607">
        <ele>2.7999999523163</ele>
        <time>2019-04-15T10:10:12.000Z</time>
      </trkpt>
      <trkpt lat="43.6944" lon="7.26043">
        <ele>2.7999999523163</ele>
        <time>2019-04-15T10:10:18.000Z</time>
      </trkpt>
      <trkpt lat="43.69436" lon="7.26015">
        <ele>2.7999999523163</ele>
        <time>2019-04-15T10:10:26.000Z</time>
      </trkpt>
      <trkpt lat="43.6943" lon="7.25986">
        <ele>3</ele>
        <time>2019-04-15T10:10:32.000Z</time>
      </trkpt>
      <trkpt lat="43.69426" lon="7.25957">
        <ele>3.4000000953674</ele>
        <time>2019-04-15T10:10:39.000Z</time>
      </trkpt>
      <trkpt lat="43.69422" lon="7.25933">
        <ele>3.5999999046326</ele>
        <time>2019-04-15T10:10:46.000Z</time>
      </trkpt>
      <trkpt lat="43.69416" lon="7.25907">
        <ele>4.4000000953674</ele>
        <time>2019-04-15T10:10:54.000Z</time>
      </trkpt>
      <trkpt lat="43.69416" lon="7.25904">
        <ele>4.4000000953674</ele>
        <time>2019-04-15T10:10:55.000Z</time>
      </trkpt>
      <trkpt lat="43.69413" lon="7.25876">
        <ele>5.4000000953674</ele>
        <time>2019-04-15T10:11:03.000Z</time>
      </trkpt>
      <trkpt lat="43.6941" lon="7.25853">
        <ele>6.5999999046326</ele>
        <time>2019-04-15T10:11:10.000Z</time>
      </trkpt>
      <trkpt lat="43.69424" lon="7.25848">
        <ele>7.4000000953674</ele>
        <time>2019-04-15T10:11:18.000Z</time>
      </trkpt>
      <trkpt lat="43.69427" lon="7.25832">
        <ele>8.3999996185303</ele>
        <time>2019-04-15T10:11:23.000Z</time>
      </trkpt>
      <trkpt lat="43.69432" lon="7.25822">
        <ele>8.6000003814697</ele>
        <time>2019-04-15T10:11:27.000Z</time>
      </trkpt>
      <trkpt lat="43.69428" lon="7.25802">
        <ele>9.1999998092651</ele>
        <time>2019-04-15T10:11:34.000Z</time>
      </trkpt>
    </trkseg>
  </trk>
</gpx>